sensor_id;sensor_type;location;lat;lon;timestamp;temperature;humidity
1417;DHT22;703;51.162;13.574;2023-06-01T00:01:55;12.60;99.90
1417;DHT22;703;51.162;13.574;2023-06-01T00:04:20;12.70;99.90
1417;DHT22;703;51.162;13.574;2023-06-01T00:06:46;12.60;99.90
1417;DHT22;703;51.162;13.574;2023-06-01T00:09:12;12.60;99.90
1417;DHT22;703;51.162;13.574;2023-06-01T00:11:37;12.50;99.90
1417;DHT22;703;51.162;13.574;2023-06-01T00:14:03;12.50;99.90
1417;DHT22;703;51.162;13.574;2023-06-01T00:16:28;12.40;99.90
1417;DHT22;703;51.162;13.574;2023-06-01T00:18:56;12.40;99.90
1417;DHT22;703;51.162;13.574;2023-06-01T00:21:22;12.30;99.90
1417;DHT22;703;51.162;13.574;2023-06-01T00:23:47;12.30;99.90
1417;DHT22;703;51.162;13.574;2023-06-01T00:26:13;12.20;99.90
1417;DHT22;703;51.162;13.574;2023-06-01T00:28:41;12.20;99.90
1417;DHT22;703;51.162;13.574;2023-06-01T00:31:06;12.10;99.90
1417;DHT22;703;51.162;13.574;2023-06-01T00:33:32;12.00;99.90
1417;DHT22;703;51.162;13.574;2023-06-01T00:35:57;12.10;99.90
1417;DHT22;703;51.162;13.574;2023-06-01T00:38:23;12.00;99.90
1417;DHT22;703;51.162;13.574;2023-06-01T00:40:48;12.10;99.90
1417;DHT22;703;51.162;13.574;2023-06-01T00:43:15;12.10;99.90
1417;DHT22;703;51.162;13.574;2023-06-01T00:45:41;12.00;99.90
1417;DHT22;703;51.162;13.574;2023-06-01T00:48:10;12.00;99.90
1417;DHT22;703;51.162;13.574;2023-06-01T00:50:36;11.90;99.90
1417;DHT22;703;51.162;13.574;2023-06-01T00:53:02;12.00;99.90
1417;DHT22;703;51.162;13.574;2023-06-01T00:55:28;11.80;99.90
1417;DHT22;703;51.162;13.574;2023-06-01T00:57:54;11.80;99.90
1417;DHT22;703;51.162;13.574;2023-06-01T01:00:20;11.90;99.90
1417;DHT22;703;51.162;13.574;2023-06-01T01:02:49;11.90;99.90
1417;DHT22;703;51.162;13.574;2023-06-01T01:05:16;11.90;99.90
1417;DHT22;703;51.162;13.574;2023-06-01T01:13:47;11.80;99.90
1417;DHT22;703;51.162;13.574;2023-06-01T01:18:42;11.60;99.90
1417;DHT22;703;51.162;13.574;2023-06-01T01:21:10;11.60;99.90
1417;DHT22;703;51.162;13.574;2023-06-01T01:29:18;11.40;99.90
1417;DHT22;703;51.162;13.574;2023-06-01T01:31:46;11.30;99.90
1417;DHT22;703;51.162;13.574;2023-06-01T01:34:12;11.30;99.90
1417;DHT22;703;51.162;13.574;2023-06-01T01:36:38;11.30;99.90
1417;DHT22;703;51.162;13.574;2023-06-01T01:39:03;11.30;99.90
1417;DHT22;703;51.162;13.574;2023-06-01T01:41:29;11.30;99.90
1417;DHT22;703;51.162;13.574;2023-06-01T01:43:54;11.30;99.90
1417;DHT22;703;51.162;13.574;2023-06-01T01:46:23;11.30;99.90
1417;DHT22;703;51.162;13.574;2023-06-01T01:48:54;11.30;99.90
1417;DHT22;703;51.162;13.574;2023-06-01T01:51:29;11.30;99.90
1417;DHT22;703;51.162;13.574;2023-06-01T01:53:58;11.30;99.90
1417;DHT22;703;51.162;13.574;2023-06-01T01:56:24;10.90;99.90
1417;DHT22;703;51.162;13.574;2023-06-01T01:58:51;11.20;99.90
1417;DHT22;703;51.162;13.574;2023-06-01T02:01:17;11.30;99.90
1417;DHT22;703;51.162;13.574;2023-06-01T02:03:43;11.40;99.90
1417;DHT22;703;51.162;13.574;2023-06-01T02:06:09;11.40;99.90
1417;DHT22;703;51.162;13.574;2023-06-01T02:08:35;11.40;99.90
1417;DHT22;703;51.162;13.574;2023-06-01T02:11:00;11.40;99.90
1417;DHT22;703;51.162;13.574;2023-06-01T02:13:26;11.40;99.90
1417;DHT22;703;51.162;13.574;2023-06-01T02:15:51;11.30;99.90
1417;DHT22;703;51.162;13.574;2023-06-01T02:18:16;11.30;99.90
1417;DHT22;703;51.162;13.574;2023-06-01T02:20:43;11.30;99.90
1417;DHT22;703;51.162;13.574;2023-06-01T02:23:10;11.20;99.90
1417;DHT22;703;51.162;13.574;2023-06-01T02:25:39;11.10;99.90
1417;DHT22;703;51.162;13.574;2023-06-01T02:28:04;11.00;99.90
1417;DHT22;703;51.162;13.574;2023-06-01T02:30:30;11.10;99.90
1417;DHT22;703;51.162;13.574;2023-06-01T02:32:55;11.10;99.90
1417;DHT22;703;51.162;13.574;2023-06-01T02:35:21;11.10;99.90
1417;DHT22;703;51.162;13.574;2023-06-01T02:37:46;11.00;99.90
1417;DHT22;703;51.162;13.574;2023-06-01T02:40:12;10.90;99.90
1417;DHT22;703;51.162;13.574;2023-06-01T02:42:38;10.90;99.90
1417;DHT22;703;51.162;13.574;2023-06-01T02:45:06;10.80;99.90
1417;DHT22;703;51.162;13.574;2023-06-01T02:47:33;10.80;99.90
1417;DHT22;703;51.162;13.574;2023-06-01T02:49:58;10.80;99.90
1417;DHT22;703;51.162;13.574;2023-06-01T02:52:24;10.70;99.90
1417;DHT22;703;51.162;13.574;2023-06-01T02:54:49;10.70;99.90
1417;DHT22;703;51.162;13.574;2023-06-01T02:57:15;10.70;99.90
1417;DHT22;703;51.162;13.574;2023-06-01T02:59:40;10.70;99.90
1417;DHT22;703;51.162;13.574;2023-06-01T03:02:06;10.70;99.90
1417;DHT22;703;51.162;13.574;2023-06-01T03:04:32;10.70;99.90
1417;DHT22;703;51.162;13.574;2023-06-01T03:06:58;10.70;99.90
1417;DHT22;703;51.162;13.574;2023-06-01T03:09:24;10.70;99.90
1417;DHT22;703;51.162;13.574;2023-06-01T03:11:50;10.70;99.90
1417;DHT22;703;51.162;13.574;2023-06-01T03:14:15;10.70;99.90
1417;DHT22;703;51.162;13.574;2023-06-01T03:16:41;10.70;99.90
1417;DHT22;703;51.162;13.574;2023-06-01T03:19:06;10.70;99.90
1417;DHT22;703;51.162;13.574;2023-06-01T03:21:32;10.70;99.90
1417;DHT22;703;51.162;13.574;2023-06-01T03:23:57;10.60;99.90
1417;DHT22;703;51.162;13.574;2023-06-01T03:26:22;10.60;99.90
1417;DHT22;703;51.162;13.574;2023-06-01T03:28:48;10.60;99.90
1417;DHT22;703;51.162;13.574;2023-06-01T03:31:13;10.70;99.90
1417;DHT22;703;51.162;13.574;2023-06-01T03:33:39;10.60;99.90
1417;DHT22;703;51.162;13.574;2023-06-01T03:36:04;10.70;99.90
1417;DHT22;703;51.162;13.574;2023-06-01T03:38:32;10.70;99.90
1417;DHT22;703;51.162;13.574;2023-06-01T03:40:58;10.70;99.90
1417;DHT22;703;51.162;13.574;2023-06-01T03:43:23;10.70;99.90
1417;DHT22;703;51.162;13.574;2023-06-01T03:45:49;10.70;99.90
1417;DHT22;703;51.162;13.574;2023-06-01T03:48:14;10.70;99.90
1417;DHT22;703;51.162;13.574;2023-06-01T03:50:40;10.70;99.90
1417;DHT22;703;51.162;13.574;2023-06-01T03:53:06;10.80;99.90
1417;DHT22;703;51.162;13.574;2023-06-01T03:55:32;10.80;99.90
1417;DHT22;703;51.162;13.574;2023-06-01T03:57:58;10.90;99.90
1417;DHT22;703;51.162;13.574;2023-06-01T04:00:23;10.90;99.90
1417;DHT22;703;51.162;13.574;2023-06-01T04:02:50;10.90;99.90
1417;DHT22;703;51.162;13.574;2023-06-01T04:05:18;11.00;99.90
1417;DHT22;703;51.162;13.574;2023-06-01T04:07:44;11.10;99.90
1417;DHT22;703;51.162;13.574;2023-06-01T04:10:10;11.10;99.90
1417;DHT22;703;51.162;13.574;2023-06-01T04:12:37;11.20;99.90
1417;DHT22;703;51.162;13.574;2023-06-01T04:15:03;11.30;99.90
1417;DHT22;703;51.162;13.574;2023-06-01T04:17:29;11.40;99.90
1417;DHT22;703;51.162;13.574;2023-06-01T04:19:54;11.40;99.90
1417;DHT22;703;51.162;13.574;2023-06-01T04:22:20;11.50;99.90
1417;DHT22;703;51.162;13.574;2023-06-01T04:24:45;11.60;99.90
1417;DHT22;703;51.162;13.574;2023-06-01T04:27:11;11.90;99.90
1417;DHT22;703;51.162;13.574;2023-06-01T04:29:42;11.90;99.90
1417;DHT22;703;51.162;13.574;2023-06-01T04:32:09;12.00;99.90
1417;DHT22;703;51.162;13.574;2023-06-01T04:34:35;12.10;99.90
1417;DHT22;703;51.162;13.574;2023-06-01T04:37:01;12.30;99.90
1417;DHT22;703;51.162;13.574;2023-06-01T04:39:29;12.20;99.90
1417;DHT22;703;51.162;13.574;2023-06-01T04:41:55;12.30;99.90
1417;DHT22;703;51.162;13.574;2023-06-01T04:44:22;12.40;99.90
1417;DHT22;703;51.162;13.574;2023-06-01T04:46:47;12.60;99.90
1417;DHT22;703;51.162;13.574;2023-06-01T04:49:15;12.60;99.90
1417;DHT22;703;51.162;13.574;2023-06-01T04:51:40;12.60;99.90
1417;DHT22;703;51.162;13.574;2023-06-01T04:54:06;12.90;99.90
1417;DHT22;703;51.162;13.574;2023-06-01T04:56:32;13.00;99.90
1417;DHT22;703;51.162;13.574;2023-06-01T04:58:58;13.00;99.90
1417;DHT22;703;51.162;13.574;2023-06-01T05:01:24;13.30;99.90
1417;DHT22;703;51.162;13.574;2023-06-01T05:03:54;13.40;99.90
1417;DHT22;703;51.162;13.574;2023-06-01T05:06:21;13.60;99.90
1417;DHT22;703;51.162;13.574;2023-06-01T05:08:47;13.60;99.90
1417;DHT22;703;51.162;13.574;2023-06-01T05:11:12;13.80;99.90
1417;DHT22;703;51.162;13.574;2023-06-01T05:13:38;13.70;99.90
1417;DHT22;703;51.162;13.574;2023-06-01T05:16:06;13.90;99.90
1417;DHT22;703;51.162;13.574;2023-06-01T05:18:32;14.00;99.90
1417;DHT22;703;51.162;13.574;2023-06-01T05:20:58;14.20;99.90
1417;DHT22;703;51.162;13.574;2023-06-01T05:23:24;14.20;99.90
1417;DHT22;703;51.162;13.574;2023-06-01T05:25:50;14.20;99.90
1417;DHT22;703;51.162;13.574;2023-06-01T05:28:15;14.20;99.90
1417;DHT22;703;51.162;13.574;2023-06-01T05:30:41;14.30;99.90
1417;DHT22;703;51.162;13.574;2023-06-01T05:33:06;14.30;99.90
1417;DHT22;703;51.162;13.574;2023-06-01T05:35:32;14.30;99.90
1417;DHT22;703;51.162;13.574;2023-06-01T05:37:57;14.50;99.90
1417;DHT22;703;51.162;13.574;2023-06-01T05:40:23;14.60;99.90
1417;DHT22;703;51.162;13.574;2023-06-01T05:42:48;14.70;99.90
1417;DHT22;703;51.162;13.574;2023-06-01T05:45:14;14.80;99.90
1417;DHT22;703;51.162;13.574;2023-06-01T05:47:39;15.00;99.90
1417;DHT22;703;51.162;13.574;2023-06-01T05:50:05;14.90;99.90
1417;DHT22;703;51.162;13.574;2023-06-01T05:52:31;14.90;99.90
1417;DHT22;703;51.162;13.574;2023-06-01T05:54:56;15.00;99.90
1417;DHT22;703;51.162;13.574;2023-06-01T05:57:22;15.20;99.90
1417;DHT22;703;51.162;13.574;2023-06-01T05:59:47;15.10;99.90
1417;DHT22;703;51.162;13.574;2023-06-01T06:02:13;15.10;99.90
1417;DHT22;703;51.162;13.574;2023-06-01T06:04:39;15.20;99.90
1417;DHT22;703;51.162;13.574;2023-06-01T06:07:04;15.20;99.90
1417;DHT22;703;51.162;13.574;2023-06-01T06:09:30;15.20;99.90
1417;DHT22;703;51.162;13.574;2023-06-01T06:11:56;15.50;99.90
1417;DHT22;703;51.162;13.574;2023-06-01T06:14:21;15.50;99.90
1417;DHT22;703;51.162;13.574;2023-06-01T06:16:47;15.50;99.90
1417;DHT22;703;51.162;13.574;2023-06-01T06:19:12;15.40;99.90
1417;DHT22;703;51.162;13.574;2023-06-01T06:21:41;15.60;99.90
1417;DHT22;703;51.162;13.574;2023-06-01T06:24:06;15.60;99.90
1417;DHT22;703;51.162;13.574;2023-06-01T06:26:32;15.70;99.90
1417;DHT22;703;51.162;13.574;2023-06-01T06:28:57;15.60;99.90
1417;DHT22;703;51.162;13.574;2023-06-01T06:31:23;15.70;99.90
1417;DHT22;703;51.162;13.574;2023-06-01T06:33:48;15.70;99.90
1417;DHT22;703;51.162;13.574;2023-06-01T06:36:15;16.00;99.90
1417;DHT22;703;51.162;13.574;2023-06-01T06:38:41;16.00;99.90
1417;DHT22;703;51.162;13.574;2023-06-01T06:41:06;15.80;99.90
1417;DHT22;703;51.162;13.574;2023-06-01T06:43:32;16.10;99.90
1417;DHT22;703;51.162;13.574;2023-06-01T06:45:58;16.10;99.90
1417;DHT22;703;51.162;13.574;2023-06-01T06:48:23;16.20;99.90
1417;DHT22;703;51.162;13.574;2023-06-01T06:50:48;16.20;99.90
1417;DHT22;703;51.162;13.574;2023-06-01T06:53:14;16.40;99.90
1417;DHT22;703;51.162;13.574;2023-06-01T06:55:39;16.70;99.90
1417;DHT22;703;51.162;13.574;2023-06-01T06:58:08;16.70;99.90
1417;DHT22;703;51.162;13.574;2023-06-01T07:00:36;16.70;99.90
1417;DHT22;703;51.162;13.574;2023-06-01T07:03:01;16.70;99.90
1417;DHT22;703;51.162;13.574;2023-06-01T07:05:27;17.00;99.90
1417;DHT22;703;51.162;13.574;2023-06-01T07:07:52;17.20;99.90
1417;DHT22;703;51.162;13.574;2023-06-01T07:10:18;17.10;99.90
1417;DHT22;703;51.162;13.574;2023-06-01T07:12:43;17.10;99.90
1417;DHT22;703;51.162;13.574;2023-06-01T07:15:10;17.30;99.90
1417;DHT22;703;51.162;13.574;2023-06-01T07:17:35;17.10;99.90
1417;DHT22;703;51.162;13.574;2023-06-01T07:20:02;17.00;99.90
1417;DHT22;703;51.162;13.574;2023-06-01T07:22:30;17.10;99.90
1417;DHT22;703;51.162;13.574;2023-06-01T07:24:55;17.30;99.90
1417;DHT22;703;51.162;13.574;2023-06-01T07:27:20;17.60;99.90
1417;DHT22;703;51.162;13.574;2023-06-01T07:29:46;17.80;99.90
1417;DHT22;703;51.162;13.574;2023-06-01T07:32:11;17.70;99.90
1417;DHT22;703;51.162;13.574;2023-06-01T07:34:37;17.90;99.90
1417;DHT22;703;51.162;13.574;2023-06-01T07:37:03;17.70;99.90
1417;DHT22;703;51.162;13.574;2023-06-01T07:39:29;18.00;99.90
1417;DHT22;703;51.162;13.574;2023-06-01T07:41:55;18.20;99.90
1417;DHT22;703;51.162;13.574;2023-06-01T07:44:21;18.30;99.90
1417;DHT22;703;51.162;13.574;2023-06-01T07:46:47;18.20;99.90
1417;DHT22;703;51.162;13.574;2023-06-01T07:49:12;18.40;99.90
1417;DHT22;703;51.162;13.574;2023-06-01T07:51:40;18.80;99.90
1417;DHT22;703;51.162;13.574;2023-06-01T07:54:05;18.90;99.90
1417;DHT22;703;51.162;13.574;2023-06-01T07:56:31;19.10;99.90
1417;DHT22;703;51.162;13.574;2023-06-01T07:58:56;19.20;99.90
1417;DHT22;703;51.162;13.574;2023-06-01T08:01:22;19.50;99.90
1417;DHT22;703;51.162;13.574;2023-06-01T08:03:47;19.40;99.90
1417;DHT22;703;51.162;13.574;2023-06-01T08:06:14;19.30;99.90
1417;DHT22;703;51.162;13.574;2023-06-01T08:08:40;19.60;99.90
1417;DHT22;703;51.162;13.574;2023-06-01T08:11:06;19.80;99.90
1417;DHT22;703;51.162;13.574;2023-06-01T08:13:32;19.80;99.90
1417;DHT22;703;51.162;13.574;2023-06-01T08:16:01;19.50;99.90
1417;DHT22;703;51.162;13.574;2023-06-01T08:18:27;19.70;99.90
1417;DHT22;703;51.162;13.574;2023-06-01T08:20:54;19.80;99.90
1417;DHT22;703;51.162;13.574;2023-06-01T08:23:20;19.90;99.90
1417;DHT22;703;51.162;13.574;2023-06-01T08:25:48;20.30;99.90
1417;DHT22;703;51.162;13.574;2023-06-01T08:28:13;20.00;99.90
1417;DHT22;703;51.162;13.574;2023-06-01T08:33:05;20.60;99.90
1417;DHT22;703;51.162;13.574;2023-06-01T08:35:30;20.80;99.90
1417;DHT22;703;51.162;13.574;2023-06-01T08:38:01;20.60;99.90
1417;DHT22;703;51.162;13.574;2023-06-01T08:40:28;20.90;99.90
1417;DHT22;703;51.162;13.574;2023-06-01T08:45:19;20.80;99.90
1417;DHT22;703;51.162;13.574;2023-06-01T08:47:45;21.10;99.90
1417;DHT22;703;51.162;13.574;2023-06-01T08:50:11;21.40;99.90
1417;DHT22;703;51.162;13.574;2023-06-01T08:52:36;21.50;99.90
1417;DHT22;703;51.162;13.574;2023-06-01T08:55:03;21.50;99.90
1417;DHT22;703;51.162;13.574;2023-06-01T08:57:29;21.70;99.90
1417;DHT22;703;51.162;13.574;2023-06-01T08:59:58;21.60;99.90
1417;DHT22;703;51.162;13.574;2023-06-01T09:02:24;21.90;99.90
1417;DHT22;703;51.162;13.574;2023-06-01T09:04:50;22.10;99.90
1417;DHT22;703;51.162;13.574;2023-06-01T09:07:16;22.20;99.90
1417;DHT22;703;51.162;13.574;2023-06-01T09:09:42;22.10;99.90
1417;DHT22;703;51.162;13.574;2023-06-01T09:12:24;22.20;99.90
1417;DHT22;703;51.162;13.574;2023-06-01T09:15:06;22.10;99.90
1417;DHT22;703;51.162;13.574;2023-06-01T09:17:32;22.20;99.90
1417;DHT22;703;51.162;13.574;2023-06-01T09:19:58;22.70;99.90
1417;DHT22;703;51.162;13.574;2023-06-01T09:22:23;22.50;99.90
1417;DHT22;703;51.162;13.574;2023-06-01T09:24:58;22.80;99.90
1417;DHT22;703;51.162;13.574;2023-06-01T09:27:24;22.90;99.90
1417;DHT22;703;51.162;13.574;2023-06-01T09:29:55;22.90;99.90
1417;DHT22;703;51.162;13.574;2023-06-01T09:32:20;23.10;99.90
1417;DHT22;703;51.162;13.574;2023-06-01T09:34:47;23.10;99.90
1417;DHT22;703;51.162;13.574;2023-06-01T09:37:12;23.10;99.90
1417;DHT22;703;51.162;13.574;2023-06-01T09:39:39;23.20;99.90
1417;DHT22;703;51.162;13.574;2023-06-01T09:42:05;23.20;99.90
1417;DHT22;703;51.162;13.574;2023-06-01T09:47:01;23.10;99.90
1417;DHT22;703;51.162;13.574;2023-06-01T09:49:27;23.40;99.90
1417;DHT22;703;51.162;13.574;2023-06-01T09:52:15;23.90;99.90
1417;DHT22;703;51.162;13.574;2023-06-01T09:54:43;23.70;99.90
1417;DHT22;703;51.162;13.574;2023-06-01T09:57:10;23.60;99.90
1417;DHT22;703;51.162;13.574;2023-06-01T10:02:05;23.90;99.90
1417;DHT22;703;51.162;13.574;2023-06-01T10:04:31;23.50;99.90
1417;DHT22;703;51.162;13.574;2023-06-01T10:06:58;23.60;99.90
1417;DHT22;703;51.162;13.574;2023-06-01T10:09:24;23.90;99.90
1417;DHT22;703;51.162;13.574;2023-06-01T10:11:51;23.90;99.90
1417;DHT22;703;51.162;13.574;2023-06-01T10:14:18;24.00;99.90
1417;DHT22;703;51.162;13.574;2023-06-01T10:16:44;24.00;99.90
1417;DHT22;703;51.162;13.574;2023-06-01T10:19:10;23.60;99.90
1417;DHT22;703;51.162;13.574;2023-06-01T10:21:36;24.00;99.90
1417;DHT22;703;51.162;13.574;2023-06-01T10:24:05;24.40;99.90
1417;DHT22;703;51.162;13.574;2023-06-01T10:26:33;24.30;99.90
1417;DHT22;703;51.162;13.574;2023-06-01T10:29:01;24.10;99.90
1417;DHT22;703;51.162;13.574;2023-06-01T10:34:02;24.20;99.90
1417;DHT22;703;51.162;13.574;2023-06-01T10:39:24;23.90;99.90
1417;DHT22;703;51.162;13.574;2023-06-01T10:41:50;24.30;99.90
1417;DHT22;703;51.162;13.574;2023-06-01T10:47:00;24.60;99.90
1417;DHT22;703;51.162;13.574;2023-06-01T10:49:53;24.60;99.90
1417;DHT22;703;51.162;13.574;2023-06-01T10:54:50;24.30;99.90
1417;DHT22;703;51.162;13.574;2023-06-01T10:57:19;24.60;99.90
1417;DHT22;703;51.162;13.574;2023-06-01T11:00:08;24.80;99.90
1417;DHT22;703;51.162;13.574;2023-06-01T11:02:34;24.40;99.90
1417;DHT22;703;51.162;13.574;2023-06-01T11:07:44;24.90;99.90
1417;DHT22;703;51.162;13.574;2023-06-01T11:10:09;25.10;99.90
1417;DHT22;703;51.162;13.574;2023-06-01T11:15:27;25.40;99.90
1417;DHT22;703;51.162;13.574;2023-06-01T11:17:52;24.80;99.90
1417;DHT22;703;51.162;13.574;2023-06-01T11:20:18;25.20;99.90
1417;DHT22;703;51.162;13.574;2023-06-01T11:22:45;25.40;99.90
1417;DHT22;703;51.162;13.574;2023-06-01T11:25:12;24.90;99.90
1417;DHT22;703;51.162;13.574;2023-06-01T11:27:42;25.50;99.90
1417;DHT22;703;51.162;13.574;2023-06-01T11:30:07;25.30;99.90
1417;DHT22;703;51.162;13.574;2023-06-01T11:32:33;25.80;99.90
1417;DHT22;703;51.162;13.574;2023-06-01T11:35:14;25.60;99.90
1417;DHT22;703;51.162;13.574;2023-06-01T11:37:40;25.80;99.90
1417;DHT22;703;51.162;13.574;2023-06-01T11:40:06;25.50;99.90
1417;DHT22;703;51.162;13.574;2023-06-01T11:42:34;25.30;99.90
1417;DHT22;703;51.162;13.574;2023-06-01T11:45:01;26.00;99.90
1417;DHT22;703;51.162;13.574;2023-06-01T11:47:30;25.60;99.90
1417;DHT22;703;51.162;13.574;2023-06-01T11:49:56;25.80;99.90
1417;DHT22;703;51.162;13.574;2023-06-01T11:52:21;25.80;99.90
1417;DHT22;703;51.162;13.574;2023-06-01T11:54:47;25.70;99.90
1417;DHT22;703;51.162;13.574;2023-06-01T11:57:13;25.30;99.90
1417;DHT22;703;51.162;13.574;2023-06-01T11:59:42;25.60;99.90
1417;DHT22;703;51.162;13.574;2023-06-01T12:02:27;25.90;99.90
1417;DHT22;703;51.162;13.574;2023-06-01T12:07:20;25.90;99.90
1417;DHT22;703;51.162;13.574;2023-06-01T12:09:46;25.90;99.90
1417;DHT22;703;51.162;13.574;2023-06-01T12:12:11;25.60;99.90
1417;DHT22;703;51.162;13.574;2023-06-01T12:14:38;25.80;99.90
1417;DHT22;703;51.162;13.574;2023-06-01T12:17:04;26.10;99.90
1417;DHT22;703;51.162;13.574;2023-06-01T12:19:30;25.70;99.90
1417;DHT22;703;51.162;13.574;2023-06-01T12:21:57;26.20;99.90
1417;DHT22;703;51.162;13.574;2023-06-01T12:24:33;25.80;99.90
1417;DHT22;703;51.162;13.574;2023-06-01T12:26:59;25.30;99.90
1417;DHT22;703;51.162;13.574;2023-06-01T12:29:38;25.50;99.90
1417;DHT22;703;51.162;13.574;2023-06-01T12:32:03;25.90;99.90
1417;DHT22;703;51.162;13.574;2023-06-01T12:34:29;26.00;99.90
1417;DHT22;703;51.162;13.574;2023-06-01T12:36:55;25.40;99.90
1417;DHT22;703;51.162;13.574;2023-06-01T12:39:33;26.20;99.90
1417;DHT22;703;51.162;13.574;2023-06-01T12:42:05;25.70;99.90
1417;DHT22;703;51.162;13.574;2023-06-01T12:44:33;25.80;99.90
1417;DHT22;703;51.162;13.574;2023-06-01T12:46:59;25.70;99.90
1417;DHT22;703;51.162;13.574;2023-06-01T12:49:25;25.00;99.90
1417;DHT22;703;51.162;13.574;2023-06-01T12:51:51;24.90;99.90
1417;DHT22;703;51.162;13.574;2023-06-01T12:54:16;25.40;99.90
1417;DHT22;703;51.162;13.574;2023-06-01T12:56:43;25.80;99.90
1417;DHT22;703;51.162;13.574;2023-06-01T12:59:09;25.20;99.90
1417;DHT22;703;51.162;13.574;2023-06-01T13:01:34;25.70;99.90
1417;DHT22;703;51.162;13.574;2023-06-01T13:04:00;25.90;99.90
1417;DHT22;703;51.162;13.574;2023-06-01T13:06:28;25.70;99.90
1417;DHT22;703;51.162;13.574;2023-06-01T13:08:53;25.60;99.90
1417;DHT22;703;51.162;13.574;2023-06-01T13:11:19;26.10;99.90
1417;DHT22;703;51.162;13.574;2023-06-01T13:13:44;25.70;99.90
1417;DHT22;703;51.162;13.574;2023-06-01T13:16:10;25.40;99.90
1417;DHT22;703;51.162;13.574;2023-06-01T13:18:36;26.10;99.90
1417;DHT22;703;51.162;13.574;2023-06-01T13:21:01;26.60;99.90
1417;DHT22;703;51.162;13.574;2023-06-01T13:23:28;25.60;99.90
1417;DHT22;703;51.162;13.574;2023-06-01T13:25:53;26.00;99.90
1417;DHT22;703;51.162;13.574;2023-06-01T13:28:19;26.00;99.90
1417;DHT22;703;51.162;13.574;2023-06-01T13:30:44;26.10;99.90
1417;DHT22;703;51.162;13.574;2023-06-01T13:33:10;26.50;99.90
1417;DHT22;703;51.162;13.574;2023-06-01T13:35:36;26.00;99.90
1417;DHT22;703;51.162;13.574;2023-06-01T13:38:01;26.40;99.90
1417;DHT22;703;51.162;13.574;2023-06-01T13:40:27;25.90;99.90
1417;DHT22;703;51.162;13.574;2023-06-01T13:42:52;26.30;99.90
1417;DHT22;703;51.162;13.574;2023-06-01T13:45:19;26.30;99.90
1417;DHT22;703;51.162;13.574;2023-06-01T13:47:44;26.00;99.90
1417;DHT22;703;51.162;13.574;2023-06-01T13:50:11;25.90;99.90
1417;DHT22;703;51.162;13.574;2023-06-01T13:52:38;26.40;99.90
1417;DHT22;703;51.162;13.574;2023-06-01T13:55:03;26.60;99.90
1417;DHT22;703;51.162;13.574;2023-06-01T13:57:29;26.00;99.90
1417;DHT22;703;51.162;13.574;2023-06-01T13:59:54;25.80;99.90
1417;DHT22;703;51.162;13.574;2023-06-01T14:02:20;26.00;99.90
1417;DHT22;703;51.162;13.574;2023-06-01T14:04:46;25.80;99.90
1417;DHT22;703;51.162;13.574;2023-06-01T14:07:12;26.60;99.90
1417;DHT22;703;51.162;13.574;2023-06-01T14:09:38;26.70;99.90
1417;DHT22;703;51.162;13.574;2023-06-01T14:12:03;26.70;99.90
1417;DHT22;703;51.162;13.574;2023-06-01T14:14:29;26.50;99.90
1417;DHT22;703;51.162;13.574;2023-06-01T14:16:54;26.80;99.90
1417;DHT22;703;51.162;13.574;2023-06-01T14:19:20;26.50;99.90
1417;DHT22;703;51.162;13.574;2023-06-01T14:21:45;26.30;99.90
1417;DHT22;703;51.162;13.574;2023-06-01T14:24:11;26.10;99.90
1417;DHT22;703;51.162;13.574;2023-06-01T14:26:36;26.40;99.90
1417;DHT22;703;51.162;13.574;2023-06-01T14:29:02;26.40;99.90
1417;DHT22;703;51.162;13.574;2023-06-01T14:31:27;26.10;99.90
1417;DHT22;703;51.162;13.574;2023-06-01T14:33:53;26.90;99.90
1417;DHT22;703;51.162;13.574;2023-06-01T14:36:18;26.50;99.90
1417;DHT22;703;51.162;13.574;2023-06-01T14:38:45;26.40;99.90
1417;DHT22;703;51.162;13.574;2023-06-01T14:41:11;26.50;99.90
1417;DHT22;703;51.162;13.574;2023-06-01T14:43:36;26.30;99.90
1417;DHT22;703;51.162;13.574;2023-06-01T14:46:04;26.10;99.90
1417;DHT22;703;51.162;13.574;2023-06-01T14:48:29;26.30;99.90
1417;DHT22;703;51.162;13.574;2023-06-01T14:50:55;25.80;99.90
1417;DHT22;703;51.162;13.574;2023-06-01T14:53:21;25.80;99.90
1417;DHT22;703;51.162;13.574;2023-06-01T14:55:47;25.90;99.90
1417;DHT22;703;51.162;13.574;2023-06-01T14:58:12;26.20;99.90
1417;DHT22;703;51.162;13.574;2023-06-01T15:00:38;25.70;99.90
1417;DHT22;703;51.162;13.574;2023-06-01T15:03:04;25.70;99.90
1417;DHT22;703;51.162;13.574;2023-06-01T15:05:30;26.10;99.90
1417;DHT22;703;51.162;13.574;2023-06-01T15:07:56;26.10;99.90
1417;DHT22;703;51.162;13.574;2023-06-01T15:10:21;27.30;99.90
1417;DHT22;703;51.162;13.574;2023-06-01T15:12:47;26.50;99.90
1417;DHT22;703;51.162;13.574;2023-06-01T15:15:13;26.20;99.90
1417;DHT22;703;51.162;13.574;2023-06-01T15:17:38;26.20;99.90
1417;DHT22;703;51.162;13.574;2023-06-01T15:20:05;26.00;99.90
1417;DHT22;703;51.162;13.574;2023-06-01T15:22:31;25.80;99.90
1417;DHT22;703;51.162;13.574;2023-06-01T15:24:56;25.90;99.90
1417;DHT22;703;51.162;13.574;2023-06-01T15:27:22;25.70;99.90
1417;DHT22;703;51.162;13.574;2023-06-01T15:29:47;25.70;99.90
1417;DHT22;703;51.162;13.574;2023-06-01T15:32:13;26.10;99.90
1417;DHT22;703;51.162;13.574;2023-06-01T15:34:39;25.90;99.90
1417;DHT22;703;51.162;13.574;2023-06-01T15:37:10;25.70;99.90
1417;DHT22;703;51.162;13.574;2023-06-01T15:39:36;25.10;99.90
1417;DHT22;703;51.162;13.574;2023-06-01T15:42:05;25.00;99.90
1417;DHT22;703;51.162;13.574;2023-06-01T15:44:31;25.20;99.90
1417;DHT22;703;51.162;13.574;2023-06-01T15:46:57;25.50;99.90
1417;DHT22;703;51.162;13.574;2023-06-01T15:49:22;25.10;99.90
1417;DHT22;703;51.162;13.574;2023-06-01T15:51:48;24.90;99.90
1417;DHT22;703;51.162;13.574;2023-06-01T15:54:13;25.10;99.90
1417;DHT22;703;51.162;13.574;2023-06-01T15:56:39;25.30;99.90
1417;DHT22;703;51.162;13.574;2023-06-01T15:59:05;25.30;99.90
1417;DHT22;703;51.162;13.574;2023-06-01T16:01:31;25.20;99.90
1417;DHT22;703;51.162;13.574;2023-06-01T16:03:56;25.10;99.90
1417;DHT22;703;51.162;13.574;2023-06-01T16:06:22;24.70;99.90
1417;DHT22;703;51.162;13.574;2023-06-01T16:08:47;24.60;99.90
1417;DHT22;703;51.162;13.574;2023-06-01T16:11:13;24.40;99.90
1417;DHT22;703;51.162;13.574;2023-06-01T16:13:38;24.30;99.90
1417;DHT22;703;51.162;13.574;2023-06-01T16:16:03;24.50;99.90
1417;DHT22;703;51.162;13.574;2023-06-01T16:18:29;24.70;99.90
1417;DHT22;703;51.162;13.574;2023-06-01T16:20:55;24.70;99.90
1417;DHT22;703;51.162;13.574;2023-06-01T16:23:20;24.70;99.90
1417;DHT22;703;51.162;13.574;2023-06-01T16:25:46;24.20;99.90
1417;DHT22;703;51.162;13.574;2023-06-01T16:28:11;24.20;99.90
1417;DHT22;703;51.162;13.574;2023-06-01T16:30:37;23.90;99.90
1417;DHT22;703;51.162;13.574;2023-06-01T16:33:02;23.90;99.90
1417;DHT22;703;51.162;13.574;2023-06-01T16:35:28;23.90;99.90
1417;DHT22;703;51.162;13.574;2023-06-01T16:37:54;23.70;99.90
1417;DHT22;703;51.162;13.574;2023-06-01T16:40:20;23.70;99.90